KLSV/LSV METAR and TAF weather

Enter ICAO airport designator
Station Type Date Time Source
KLSV METAR 2022/06/27 16:58 UTC NOAA

KLSV 271658Z AUTO 11007KT 10SM CLR 35/13 A3009 RMK AO2 SLPNO T03500132 $


Station Type Date Time Source
KLSV Decoded METAR 2022/06/27 16:58 UTC NOAA

Nellis Air Force Base, NV, United States (KLSV) 36-14N 115-02W
Jun 27, 2022 - 12:58 PM EDT / 2022.06.27 1658 UTC
Wind: from the ESE (110 degrees) at 8 MPH (7 KT):0
Visibility: 10 mile(s):0
Sky conditions: clear
Temperature: 95.0 F (35.0 C)
Dew Point: 55.8 F (13.2 C)
Relative Humidity: 26%
Pressure (altimeter): 30.09 in. Hg (1018 hPa)
ob: KLSV 271658Z AUTO 11007KT 10SM CLR 35/13 A3009 RMK AO2 SLPNO T03500132
cycle: 17

Station Type Date Time Source
KLSV TAF 2022/06/27 15:59 UTC NOAA

TAF KLSV 271500Z 2715/2821 12010G15KT 9999 FEW200 QNH3002INS
BECMG 2723/2724 19010KT 9999 FEW150 SCT200 QNH2994INS
TEMPO 2800/2806 17015G30KT 520009
BECMG 2816/2817 18010G15KT 9999 FEW150 QNH2986INS
BECMG 2820/2821 21012G22KT 9999 VCSH FEW130 SCT160 BKN190 510009 QNH2989INS TX44/2723Z TN30/2812Z

Example: see airport list